createdAt,value
2018-04-30T00:00:44.578Z,18.09
2018-04-30T00:03:12.868Z,17.97
2018-04-30T00:05:41.207Z,17.94
2018-04-30T00:08:09.488Z,17.83
2018-04-30T00:10:37.772Z,17.80
2018-04-30T00:13:06.098Z,17.88
2018-04-30T00:15:34.514Z,17.82
2018-04-30T00:18:02.950Z,17.80
2018-04-30T00:20:32.004Z,17.73
2018-04-30T00:23:00.271Z,17.60
2018-04-30T00:25:28.562Z,17.60
2018-04-30T00:27:56.835Z,17.49
2018-04-30T00:30:25.131Z,17.47
2018-04-30T00:32:53.391Z,17.46
2018-04-30T00:35:21.702Z,17.56
2018-04-30T00:37:49.982Z,17.52
2018-04-30T00:40:18.301Z,17.39
2018-04-30T00:42:46.581Z,17.46
2018-04-30T00:45:14.886Z,17.47
2018-04-30T00:47:43.933Z,17.52
2018-04-30T00:50:12.501Z,17.49
2018-04-30T00:52:40.973Z,17.43
2018-04-30T00:55:09.295Z,17.40
2018-04-30T00:57:37.657Z,17.39
2018-04-30T01:00:05.966Z,17.27
2018-04-30T01:02:34.252Z,17.39
2018-04-30T01:05:03.355Z,17.29
2018-04-30T01:07:32.421Z,17.31
2018-04-30T01:10:00.689Z,17.21
2018-04-30T01:12:28.998Z,17.11
2018-04-30T01:14:58.031Z,16.93
2018-04-30T01:17:26.311Z,16.96
2018-04-30T01:19:54.593Z,16.83
2018-04-30T01:22:22.912Z,16.70
2018-04-30T01:24:51.943Z,16.78
2018-04-30T01:27:20.240Z,16.74
2018-04-30T01:29:48.644Z,16.68
2018-04-30T01:32:17.683Z,16.57
2018-04-30T01:34:45.987Z,16.62
2018-04-30T01:37:14.264Z,16.61
2018-04-30T01:39:42.558Z,16.61
2018-04-30T01:42:10.851Z,16.64
2018-04-30T01:44:39.911Z,16.63
2018-04-30T01:47:08.194Z,16.65
2018-04-30T01:49:36.499Z,16.64
2018-04-30T01:52:05.521Z,16.66
2018-04-30T01:54:33.845Z,16.73
2018-04-30T01:57:02.123Z,16.65
2018-04-30T01:59:30.395Z,16.60
2018-04-30T02:01:58.676Z,16.67
2018-04-30T02:04:27.701Z,16.68
2018-04-30T02:06:56.003Z,16.61
2018-04-30T02:09:24.277Z,16.51
2018-04-30T02:11:52.555Z,16.63
2018-04-30T02:14:21.038Z,16.61
2018-04-30T02:16:49.329Z,16.50
2018-04-30T02:19:17.733Z,16.38
2018-04-30T02:21:46.866Z,16.30
2018-04-30T02:24:15.082Z,16.22
2018-04-30T02:26:43.349Z,16.16
2018-04-30T02:29:11.666Z,16.19
2018-04-30T02:31:40.685Z,16.13
2018-04-30T02:34:08.974Z,16.14
2018-04-30T02:36:37.274Z,16.14
2018-04-30T02:39:05.552Z,16.13
2018-04-30T02:41:33.849Z,15.99
2018-04-30T02:44:02.950Z,15.99
2018-04-30T02:46:31.999Z,16.03
2018-04-30T02:49:00.266Z,16.00
2018-04-30T02:51:28.535Z,16.00
2018-04-30T02:53:56.943Z,15.83
2018-04-30T02:56:25.195Z,15.75
2018-04-30T02:58:53.491Z,15.74
2018-04-30T03:01:22.185Z,15.60
2018-04-30T03:03:50.483Z,15.60
2018-04-30T03:06:19.523Z,15.51
2018-04-30T03:08:47.917Z,15.41
2018-04-30T03:11:16.210Z,15.28
2018-04-30T03:13:44.475Z,15.31
2018-04-30T03:16:12.751Z,15.23
2018-04-30T03:18:41.039Z,15.20
2018-04-30T03:21:09.335Z,15.10
2018-04-30T03:23:38.409Z,15.14
2018-04-30T03:26:06.725Z,15.18
2018-04-30T03:28:34.971Z,15.13
2018-04-30T03:31:04.014Z,15.11
2018-04-30T03:33:32.291Z,15.10
2018-04-30T03:36:00.571Z,14.91
2018-04-30T03:38:28.942Z,14.98
2018-04-30T03:40:57.220Z,14.83
2018-04-30T03:43:25.971Z,14.89
2018-04-30T03:45:54.246Z,14.76
2018-04-30T03:48:22.530Z,14.69
2018-04-30T03:50:50.839Z,14.62
2018-04-30T03:53:19.106Z,14.56
2018-04-30T03:55:47.377Z,14.63
2018-04-30T03:58:15.661Z,14.59
2018-04-30T04:01:01.507Z,14.55
2018-04-30T04:03:47.694Z,14.60
2018-04-30T04:09:24.156Z,14.63
2018-04-30T04:11:52.462Z,14.33
2018-04-30T04:14:21.631Z,14.36
2018-04-30T04:16:49.883Z,14.39
2018-04-30T04:19:18.163Z,14.08
2018-04-30T04:21:46.480Z,14.03
2018-04-30T04:24:15.533Z,14.07
2018-04-30T04:26:43.813Z,13.84
2018-04-30T04:29:12.154Z,13.83
2018-04-30T04:31:40.411Z,13.89
2018-04-30T04:34:08.685Z,13.73
2018-04-30T04:36:37.716Z,13.80
2018-04-30T04:39:06.841Z,13.39
2018-04-30T04:41:35.208Z,13.36
2018-04-30T04:44:03.485Z,13.62
2018-04-30T04:46:32.126Z,13.74
2018-04-30T04:49:00.404Z,13.83
2018-04-30T04:51:28.689Z,13.62
2018-04-30T04:53:56.955Z,13.68
2018-04-30T04:56:25.236Z,13.72
2018-04-30T04:58:53.522Z,13.75
2018-04-30T05:01:21.807Z,13.77
2018-04-30T05:03:50.063Z,13.67
2018-04-30T05:06:18.334Z,13.61
2018-04-30T05:08:46.621Z,13.77
2018-04-30T05:11:15.332Z,13.60
2018-04-30T05:13:43.782Z,13.73
2018-04-30T05:16:12.384Z,13.75
2018-04-30T05:18:40.854Z,13.75
2018-04-30T05:21:09.232Z,13.88
2018-04-30T05:23:37.711Z,13.89
2018-04-30T05:26:06.344Z,13.81
2018-04-30T05:28:35.566Z,13.92
2018-04-30T05:31:04.193Z,13.88
2018-04-30T05:33:32.669Z,14.03
2018-04-30T05:36:01.048Z,14.03
2018-04-30T05:38:29.310Z,13.98
2018-04-30T05:40:57.586Z,14.09
2018-04-30T05:43:25.853Z,13.89
2018-04-30T05:45:54.134Z,14.09
2018-04-30T05:48:22.522Z,13.81
2018-04-30T05:50:50.807Z,13.73
2018-04-30T05:53:19.223Z,13.98
2018-04-30T05:55:47.530Z,13.81
2018-04-30T05:58:15.785Z,13.76
2018-04-30T06:00:44.062Z,13.72
2018-04-30T06:03:12.413Z,13.49
2018-04-30T06:05:41.458Z,13.69
2018-04-30T06:08:09.737Z,13.80
2018-04-30T06:10:38.321Z,14.23
2018-04-30T06:13:06.587Z,13.91
2018-04-30T06:15:34.862Z,14.00
2018-04-30T06:18:07.493Z,14.19
2018-04-30T06:20:36.535Z,14.01
2018-04-30T06:23:04.855Z,13.98
2018-04-30T06:25:33.892Z,14.15
2018-04-30T06:28:02.184Z,14.19
2018-04-30T06:30:30.425Z,14.16
2018-04-30T06:32:58.704Z,14.33
2018-04-30T06:35:26.987Z,14.34
2018-04-30T06:37:55.270Z,14.18
2018-04-30T06:40:23.588Z,13.97
2018-04-30T06:42:51.901Z,14.21
2018-04-30T06:45:20.187Z,14.26
2018-04-30T06:47:48.510Z,14.09
2018-04-30T06:50:16.939Z,14.10
2018-04-30T06:52:45.245Z,14.09
2018-04-30T06:55:13.601Z,14.24
2018-04-30T06:57:42.271Z,14.46
2018-04-30T07:00:10.563Z,14.51
2018-04-30T07:02:38.818Z,14.48
2018-04-30T07:05:07.096Z,14.46
2018-04-30T07:07:35.508Z,14.23
2018-04-30T07:10:03.779Z,14.24
2018-04-30T07:12:32.027Z,14.43
2018-04-30T07:15:00.373Z,14.52
2018-04-30T07:17:29.569Z,14.30
2018-04-30T07:19:58.673Z,14.58
2018-04-30T07:22:27.732Z,14.56
2018-04-30T07:24:56.074Z,14.38
2018-04-30T07:27:24.386Z,14.52
2018-04-30T07:29:52.761Z,14.86
2018-04-30T07:32:21.117Z,14.65
2018-04-30T07:34:49.379Z,15.04
2018-04-30T07:37:17.870Z,14.83
2018-04-30T07:39:46.176Z,14.99
2018-04-30T07:42:18.007Z,14.89
2018-04-30T07:44:46.582Z,14.86
2018-04-30T07:47:14.863Z,14.84
2018-04-30T07:49:43.331Z,14.94
2018-04-30T07:52:11.822Z,15.32
2018-04-30T07:54:40.213Z,15.26
2018-04-30T07:57:08.438Z,15.34
2018-04-30T07:59:36.747Z,15.18
2018-04-30T08:02:05.052Z,15.44
2018-04-30T08:04:33.402Z,15.61
2018-04-30T08:07:05.264Z,15.46
2018-04-30T08:09:33.695Z,15.60
2018-04-30T08:12:02.043Z,15.58
2018-04-30T08:14:30.637Z,15.53
2018-04-30T08:16:58.984Z,15.21
2018-04-30T08:19:27.271Z,15.12
2018-04-30T08:21:55.594Z,15.03
2018-04-30T08:24:23.966Z,15.05
2018-04-30T08:26:53.060Z,15.10
2018-04-30T08:29:21.277Z,15.00
2018-04-30T08:31:50.010Z,15.04
2018-04-30T08:34:19.138Z,15.15
2018-04-30T08:36:47.437Z,15.21
2018-04-30T08:39:15.734Z,15.60
2018-04-30T08:41:44.021Z,15.48
2018-04-30T08:44:12.339Z,15.70
2018-04-30T08:46:40.606Z,16.03
2018-04-30T08:49:09.693Z,16.21
2018-04-30T08:51:38.723Z,16.61
2018-04-30T08:54:07.002Z,16.55
2018-04-30T08:56:35.296Z,16.43
2018-04-30T08:59:03.611Z,16.73
2018-04-30T09:01:32.746Z,16.15
2018-04-30T09:04:01.070Z,16.27
2018-04-30T09:06:29.482Z,16.28
2018-04-30T09:08:57.814Z,16.22
2018-04-30T09:11:26.860Z,16.05
2018-04-30T09:13:55.190Z,16.09
2018-04-30T09:16:24.326Z,16.52
2018-04-30T09:18:53.071Z,16.51
2018-04-30T09:21:22.135Z,16.47
2018-04-30T09:23:50.498Z,16.58
2018-04-30T09:26:18.744Z,16.71
2018-04-30T09:28:47.093Z,16.70
2018-04-30T09:31:16.270Z,16.77
2018-04-30T09:33:44.878Z,17.31
2018-04-30T09:36:13.361Z,17.54
2018-04-30T09:38:41.658Z,17.39
2018-04-30T09:41:10.138Z,17.44
2018-04-30T09:43:38.408Z,17.34
2018-04-30T09:46:06.849Z,17.18
2018-04-30T09:48:35.157Z,17.15
2018-04-30T09:51:04.225Z,17.44
2018-04-30T09:53:32.563Z,17.72
2018-04-30T09:56:01.000Z,18.76
2018-04-30T09:58:29.278Z,18.66
2018-04-30T10:00:58.043Z,18.75
2018-04-30T10:03:27.104Z,18.01
2018-04-30T10:05:55.506Z,17.93
2018-04-30T10:08:23.860Z,17.69
2018-04-30T10:10:52.149Z,17.53
2018-04-30T10:13:20.456Z,18.01
2018-04-30T10:15:48.910Z,19.03
2018-04-30T10:18:17.223Z,19.03
2018-04-30T10:20:46.249Z,18.02
2018-04-30T10:23:14.585Z,17.74
2018-04-30T10:25:43.057Z,18.61
2018-04-30T10:28:11.391Z,18.74
2018-04-30T10:30:39.684Z,19.76
2018-04-30T10:33:08.732Z,19.77
2018-04-30T10:35:37.041Z,20.34
2018-04-30T10:38:05.368Z,20.77
2018-04-30T10:40:33.635Z,21.65
2018-04-30T10:43:02.685Z,22.36
2018-04-30T10:45:30.974Z,21.64
2018-04-30T10:47:59.320Z,20.05
2018-04-30T10:50:27.588Z,19.09
2018-04-30T10:52:55.853Z,20.10
2018-04-30T10:55:24.134Z,19.59
2018-04-30T10:57:52.418Z,20.69
2018-04-30T11:00:20.713Z,19.26
2018-04-30T11:02:48.977Z,19.21
2018-04-30T11:05:17.297Z,18.55
2018-04-30T11:07:46.350Z,18.49
2018-04-30T11:10:14.628Z,18.61
2018-04-30T11:12:42.898Z,18.43
2018-04-30T11:15:11.194Z,18.32
2018-04-30T11:17:39.611Z,18.60
2018-04-30T11:20:07.952Z,18.33
2018-04-30T11:22:36.241Z,18.28
2018-04-30T11:25:05.773Z,17.88
2018-04-30T11:27:34.214Z,17.73
2018-04-30T11:30:02.923Z,17.99
2018-04-30T11:32:31.395Z,17.90
2018-04-30T11:35:00.434Z,17.95
2018-04-30T11:37:28.761Z,19.19
2018-04-30T11:39:57.965Z,22.30
2018-04-30T11:42:26.182Z,23.87
2018-04-30T11:44:54.455Z,23.23
2018-04-30T11:47:22.728Z,23.21
2018-04-30T11:49:50.996Z,22.38
2018-04-30T11:52:19.384Z,20.63
2018-04-30T11:54:47.864Z,19.53
2018-04-30T11:57:16.199Z,19.89
2018-04-30T11:59:45.308Z,21.27
2018-04-30T12:02:13.629Z,20.07
2018-04-30T12:04:41.948Z,19.18
2018-04-30T12:07:11.005Z,20.31
2018-04-30T12:09:39.395Z,21.62
2018-04-30T12:12:07.960Z,23.31
2018-04-30T12:14:36.240Z,23.30
2018-04-30T12:17:04.570Z,22.79
2018-04-30T12:19:32.866Z,21.45
2018-04-30T12:22:01.225Z,21.93
2018-04-30T12:24:30.297Z,22.07
2018-04-30T12:26:59.337Z,22.74
2018-04-30T12:29:27.605Z,22.16
2018-04-30T12:32:00.876Z,20.82
2018-04-30T12:34:29.160Z,20.08
2018-04-30T12:36:57.475Z,20.56
2018-04-30T12:39:26.032Z,19.72
2018-04-30T12:41:54.320Z,19.37
2018-04-30T12:44:22.719Z,20.46
2018-04-30T12:46:51.005Z,21.72
2018-04-30T12:49:20.844Z,21.13
2018-04-30T12:51:49.104Z,20.82
2018-04-30T12:54:17.425Z,20.52
2018-04-30T12:56:45.988Z,20.76
2018-04-30T12:59:14.327Z,21.16
2018-04-30T13:01:43.487Z,20.60
2018-04-30T13:04:12.218Z,19.97
2018-04-30T13:06:41.376Z,19.53
2018-04-30T13:09:09.691Z,19.68
2018-04-30T13:11:38.126Z,19.83
2018-04-30T13:14:06.437Z,19.36
2018-04-30T13:16:34.863Z,19.51
2018-04-30T13:19:03.175Z,19.27
2018-04-30T13:21:31.656Z,19.30
2018-04-30T13:23:59.937Z,18.95
2018-04-30T13:26:28.306Z,18.99
2018-04-30T13:28:56.577Z,19.57
2018-04-30T13:31:25.033Z,20.08
2018-04-30T13:33:54.496Z,19.71
2018-04-30T13:36:22.775Z,19.32
2018-04-30T13:38:51.164Z,19.18
2018-04-30T13:41:19.499Z,19.54
2018-04-30T13:43:47.939Z,19.47
2018-04-30T13:46:16.619Z,19.47
2018-04-30T13:48:44.905Z,19.42
2018-04-30T13:51:13.197Z,19.45
2018-04-30T13:53:41.498Z,19.51
2018-04-30T13:56:09.760Z,19.35
2018-04-30T13:58:38.127Z,19.28
2018-04-30T14:01:06.442Z,18.89
2018-04-30T14:03:35.479Z,18.81
2018-04-30T14:06:03.930Z,18.76
2018-04-30T14:08:32.232Z,18.83
2018-04-30T14:11:00.500Z,18.85
2018-04-30T14:13:28.855Z,18.96
2018-04-30T14:15:57.131Z,18.91
2018-04-30T14:18:25.405Z,19.00
2018-04-30T14:20:53.716Z,19.00
2018-04-30T14:23:21.971Z,19.29
2018-04-30T14:25:50.342Z,19.33
2018-04-30T14:28:19.241Z,19.36
2018-04-30T14:30:47.633Z,19.45
2018-04-30T14:33:15.893Z,19.56
2018-04-30T14:35:44.241Z,19.45
2018-04-30T14:38:13.305Z,19.43
2018-04-30T14:40:41.724Z,19.64
2018-04-30T14:43:10.004Z,19.34
2018-04-30T14:45:38.369Z,19.53
2018-04-30T14:48:06.979Z,19.15
2018-04-30T14:50:35.254Z,19.51
2018-04-30T14:53:03.610Z,19.52
2018-04-30T14:55:31.915Z,19.65
2018-04-30T14:58:00.322Z,19.81
2018-04-30T15:00:28.885Z,19.33
2018-04-30T15:03:01.231Z,19.35
2018-04-30T15:05:29.531Z,19.20
2018-04-30T15:07:57.862Z,19.42
2018-04-30T15:10:26.224Z,19.34
2018-04-30T15:12:55.472Z,19.39
2018-04-30T15:15:24.335Z,19.52
2018-04-30T15:17:52.641Z,19.29
2018-04-30T15:20:20.999Z,19.74
2018-04-30T15:22:49.297Z,20.02
2018-04-30T15:25:17.571Z,19.78
2018-04-30T15:27:45.858Z,19.49
2018-04-30T15:30:14.170Z,19.89
2018-04-30T15:32:43.213Z,20.07
2018-04-30T15:35:11.553Z,20.35
2018-04-30T15:37:39.771Z,19.75
2018-04-30T15:40:08.181Z,20.32
2018-04-30T15:42:36.454Z,20.99
2018-04-30T15:45:05.515Z,20.19
2018-04-30T15:47:33.832Z,19.97
2018-04-30T15:50:03.095Z,19.99
2018-04-30T15:52:31.370Z,20.18
2018-04-30T15:54:59.661Z,19.66
2018-04-30T15:57:28.344Z,18.84
2018-04-30T15:59:56.664Z,18.49
2018-04-30T16:02:24.990Z,18.43
2018-04-30T16:04:53.979Z,18.19
2018-04-30T16:07:22.352Z,18.12
2018-04-30T16:09:50.734Z,17.69
2018-04-30T16:12:19.065Z,17.22
2018-04-30T16:14:47.396Z,16.73
2018-04-30T16:17:15.803Z,16.36
2018-04-30T16:19:50.626Z,16.07
2018-04-30T16:22:19.689Z,16.33
2018-04-30T16:24:48.045Z,16.88
2018-04-30T16:27:16.410Z,17.29
2018-04-30T16:29:44.680Z,17.60
2018-04-30T16:32:13.124Z,17.32
2018-04-30T16:34:42.245Z,17.27
2018-04-30T16:37:10.614Z,17.45
2018-04-30T16:39:38.976Z,17.30
2018-04-30T16:42:07.434Z,17.06
2018-04-30T16:44:35.822Z,17.45
2018-04-30T16:47:05.046Z,17.32
2018-04-30T16:49:33.610Z,16.86
2018-04-30T16:52:02.792Z,17.42
2018-04-30T16:54:31.481Z,17.26
2018-04-30T16:57:00.644Z,17.34
2018-04-30T16:59:28.955Z,17.08
2018-04-30T17:01:57.281Z,17.43
2018-04-30T17:04:25.683Z,17.18
2018-04-30T17:06:54.027Z,17.15
2018-04-30T17:09:22.350Z,16.94
2018-04-30T17:11:50.622Z,16.91
2018-04-30T17:14:18.917Z,17.10
2018-04-30T17:16:48.101Z,17.00
2018-04-30T17:19:16.441Z,16.55
2018-04-30T17:21:44.717Z,16.86
2018-04-30T17:24:13.089Z,16.96
2018-04-30T17:26:41.293Z,16.43
2018-04-30T17:29:09.585Z,16.49
2018-04-30T17:31:37.925Z,16.60
2018-04-30T17:34:06.251Z,16.46
2018-04-30T17:36:35.860Z,16.43
2018-04-30T17:39:04.219Z,16.46
2018-04-30T17:41:32.555Z,16.27
2018-04-30T17:44:00.845Z,16.37
2018-04-30T17:46:29.205Z,16.37
2018-04-30T17:49:01.510Z,16.20
2018-04-30T17:51:29.817Z,16.06
2018-04-30T17:53:59.071Z,16.02
2018-04-30T17:56:27.363Z,15.87
2018-04-30T17:58:55.729Z,15.84
2018-04-30T18:01:23.997Z,15.66
2018-04-30T18:03:52.290Z,15.61
2018-04-30T18:06:20.748Z,15.50
2018-04-30T18:08:49.018Z,15.45
2018-04-30T18:11:17.410Z,15.38
2018-04-30T18:13:45.690Z,15.43
2018-04-30T18:16:14.139Z,15.28
2018-04-30T18:18:42.424Z,15.38
2018-04-30T18:21:10.712Z,15.14
2018-04-30T18:23:39.495Z,15.21
2018-04-30T18:26:07.932Z,15.19
2018-04-30T18:28:36.384Z,15.16
2018-04-30T18:31:04.653Z,15.15
2018-04-30T18:33:32.957Z,15.10
2018-04-30T18:36:01.240Z,15.06
2018-04-30T18:38:29.535Z,14.98
2018-04-30T18:40:57.823Z,14.94
2018-04-30T18:43:26.183Z,14.86
2018-04-30T18:45:54.488Z,14.85
2018-04-30T18:48:22.831Z,14.85
2018-04-30T18:50:51.122Z,14.81
2018-04-30T18:53:19.571Z,14.76
2018-04-30T18:55:47.863Z,14.85
2018-04-30T18:58:16.167Z,14.70
2018-04-30T19:00:44.564Z,14.61
2018-04-30T19:03:12.902Z,14.48
2018-04-30T19:05:41.483Z,14.50
2018-04-30T19:08:09.762Z,14.50
2018-04-30T19:10:38.097Z,14.58
2018-04-30T19:13:07.146Z,14.59
2018-04-30T19:15:35.422Z,14.70
2018-04-30T19:18:03.908Z,14.63
2018-04-30T19:20:32.221Z,14.62
2018-04-30T19:23:00.559Z,14.75
2018-04-30T19:25:28.831Z,14.55
2018-04-30T19:27:57.154Z,14.51
2018-04-30T19:30:25.487Z,14.60
2018-04-30T19:32:53.753Z,14.43
2018-04-30T19:35:22.055Z,14.46
2018-04-30T19:37:51.136Z,14.46
2018-04-30T19:40:19.572Z,14.41
2018-04-30T19:42:47.909Z,14.22
2018-04-30T19:45:16.226Z,14.36
2018-04-30T19:47:44.668Z,14.52
2018-04-30T19:50:12.971Z,14.35
2018-04-30T19:52:41.425Z,14.28
2018-04-30T19:55:10.484Z,14.15
2018-04-30T19:57:38.814Z,14.17
2018-04-30T20:00:07.109Z,14.08
2018-04-30T20:02:35.429Z,13.90
2018-04-30T20:05:03.740Z,13.89
2018-04-30T20:07:32.809Z,13.85
2018-04-30T20:10:01.109Z,13.77
2018-04-30T20:12:30.127Z,13.84
2018-04-30T20:14:58.403Z,13.82
2018-04-30T20:17:26.719Z,13.87
2018-04-30T20:19:55.161Z,13.99
2018-04-30T20:22:23.496Z,13.84
2018-04-30T20:24:51.779Z,13.79
2018-04-30T20:27:20.846Z,13.73
2018-04-30T20:29:49.390Z,13.49
2018-04-30T20:32:17.671Z,13.74
2018-04-30T20:34:45.932Z,13.60
2018-04-30T20:37:14.243Z,13.59
2018-04-30T20:39:42.558Z,13.40
2018-04-30T20:42:11.608Z,13.37
2018-04-30T20:44:40.005Z,13.66
2018-04-30T20:47:08.469Z,13.57
2018-04-30T20:49:36.736Z,13.50
2018-04-30T20:52:05.010Z,13.65
2018-04-30T20:54:33.365Z,13.62
2018-04-30T20:57:01.759Z,13.23
2018-04-30T20:59:30.059Z,13.69
2018-04-30T21:01:58.576Z,13.43
2018-04-30T21:04:27.641Z,13.36
2018-04-30T21:06:56.782Z,13.20
2018-04-30T21:09:25.155Z,13.36
2018-04-30T21:11:53.795Z,13.11
2018-04-30T21:14:22.079Z,13.24
2018-04-30T21:16:51.124Z,13.10
2018-04-30T21:19:19.405Z,13.12
2018-04-30T21:21:47.686Z,13.11
2018-04-30T21:24:16.269Z,13.08
2018-04-30T21:26:45.263Z,13.13
2018-04-30T21:29:13.554Z,13.10
2018-04-30T21:31:41.836Z,13.06
2018-04-30T21:34:10.438Z,13.16
2018-04-30T21:36:39.494Z,13.15
2018-04-30T21:39:07.788Z,13.01
2018-04-30T21:41:36.841Z,13.05
2018-04-30T21:44:05.163Z,13.04
2018-04-30T21:46:34.939Z,13.06
2018-04-30T21:49:03.200Z,12.98
2018-04-30T21:51:31.554Z,12.87
2018-04-30T21:53:59.895Z,12.99
2018-04-30T21:56:28.209Z,12.89
2018-04-30T21:58:56.876Z,12.89
2018-04-30T22:01:25.913Z,12.83
2018-04-30T22:03:54.167Z,12.78
2018-04-30T22:06:22.447Z,12.80
2018-04-30T22:08:50.736Z,12.84
2018-04-30T22:11:19.009Z,12.85
2018-04-30T22:13:47.287Z,12.80
2018-04-30T22:16:15.715Z,12.86
2018-04-30T22:18:44.770Z,12.90
2018-04-30T22:21:13.058Z,13.03
2018-04-30T22:23:41.322Z,12.94
2018-04-30T22:26:09.619Z,12.84
2018-04-30T22:28:37.960Z,12.79
2018-04-30T22:31:06.233Z,12.72
2018-04-30T22:33:34.522Z,12.73
2018-04-30T22:36:02.810Z,12.80
2018-04-30T22:38:31.288Z,12.61
2018-04-30T22:40:59.734Z,12.80
2018-04-30T22:43:28.036Z,12.80
2018-04-30T22:45:56.304Z,12.83
2018-04-30T22:48:24.624Z,12.91
2018-04-30T22:50:53.703Z,13.01
2018-04-30T22:53:21.995Z,13.07
2018-04-30T22:55:50.334Z,12.96
2018-04-30T22:58:18.646Z,12.80
2018-04-30T23:00:46.967Z,12.89
2018-04-30T23:03:15.225Z,12.85
2018-04-30T23:05:43.530Z,12.98
2018-04-30T23:08:11.788Z,12.78
2018-04-30T23:10:40.068Z,12.73
2018-04-30T23:13:08.346Z,12.73
2018-04-30T23:15:36.923Z,12.63
2018-04-30T23:18:05.586Z,12.61
2018-04-30T23:20:33.950Z,12.57
2018-04-30T23:23:02.273Z,12.49
2018-04-30T23:25:30.561Z,12.47
2018-04-30T23:27:58.830Z,12.57
2018-04-30T23:30:27.122Z,12.46
2018-04-30T23:32:55.429Z,12.56
2018-04-30T23:35:24.456Z,12.59
2018-04-30T23:37:52.735Z,12.34
2018-04-30T23:40:21.012Z,12.28
2018-04-30T23:42:49.307Z,12.42
2018-04-30T23:45:17.564Z,12.21
2018-04-30T23:47:45.878Z,12.16
2018-04-30T23:50:14.159Z,12.23
2018-04-30T23:52:43.203Z,12.28
2018-04-30T23:55:11.500Z,12.41
2018-04-30T23:57:39.774Z,12.50
